Impacts TAF Board
For situational awareness. Not to be used for flight planning purposes.
IDs:

KMGM - Montgomery/Dannely F, AL, US

Issued at 2341 UTC 05 Dec 2020
Updated at 0229 UTC 06 Dec 2020
Potential Impact None Slight Moderate High
Time0153Z 06/03Z 06/04Z 06/05Z 06/06Z 06/07Z 06/08Z 06/09Z 06/10Z 06/11Z 06/12Z 06/13Z 06/14Z 06/15Z>>
Type OBS PRVL PRVL PRVL PRVL PRVL PRVL PRVL PRVL PRVL PRVL PRVL PRVL PRVL
VIS 10 >6 >6 >6 >6 >6 >6 >6 >6 >6 >6 >6 >6 >6
CIG -- -- -- -- -- -- -- -- -- -- -- -- -- 15
Cover CLR FEW FEW FEW FEW FEW FEW FEW FEW FEW FEW FEW FEW BKN
FltCat VFR VFR VFR VFR VFR VFR VFR VFR VFR VFR VFR VFR VFR MVFR
WX -- -- -- -- -- -- -- -- -- -- -- -- -- --
WDir 250 VRB VRB VRB VRB VRB VRB VRB VRB VRB VRB VRB VRB 240
WSpd 4 0 0 0 0 0 0 0 0 0 0 0 0 5
WGst -- -- -- -- -- -- -- -- -- -- -- -- -- --
Raw TAF
KMGM 052341Z 0600/0624 00000KT P6SM FEW250
  FM061500 24005KT P6SM BKN015
  PROB30 0621/0624 4SM -SHRA BR OVC050


Raw METAR
KMGM 060153Z 25004KT 10SM CLR 10/04 A3011 RMK AO2 SLP198 T01000044 $
KMGM 060053Z 25007KT 10SM CLR 11/04 A3012 RMK AO2 SLP199 T01060044 $
KMGM 052353Z 25004KT 10SM CLR 12/03 A3011 RMK AO2 SLP196 T01170033 10178 20111 53001 $

METAR Board
Radar Display
Forecast Discussion
For situational awareness. Not to be used for flight planning purposes.